Wetterdaten: Woche 12.10.15 - 18.10.15 (KW42)
Datum Zeit Temp. A. Feuchte A. Luftdruck Regen Wind Richtung Sonnenschein ET UV Solar Taupunkt Windchill Windben Empfang
12.10.2015 00:00 3,8 C 77 % 1015,8 hPa 0,0 l/m 1,8 km/h (1 Bft) O-NO 0,00 h 0,000 mm 0,0 UV-I 0 W/m 0,2 C 3,6 C 3,3 km/h (1 Bft) 0,00 %
12.10.2015 01:00 2,9 C 80 % 1015,8 hPa 0,0 l/m 1,1 km/h (1 Bft) O 0,00 h 0,000 mm 0,0 UV-I 0 W/m -0,3 C 2,9 C 3,0 km/h (1 Bft) 0,00 %
12.10.2015 02:00 1,9 C 79 % 1015,8 hPa 0,0 l/m 0,5 km/h (0 Bft) O 0,00 h 0,000 mm 0,0 UV-I 0 W/m -1,5 C 1,9 C 0,7 km/h (0 Bft) 0,00 %
12.10.2015 03:00 0,7 C 81 % 1016,0 hPa 0,0 l/m 0,0 km/h (0 Bft) N 0,00 h 0,000 mm 0,0 UV-I 0 W/m -2,3 C 0,7 C 0,0 km/h (0 Bft) 0,00 %
12.10.2015 04:00 -0,6 C 86 % 1016,0 hPa 0,0 l/m 0,0 km/h (0 Bft) N 0,00 h 0,000 mm 0,0 UV-I 0 W/m -2,6 C -0,6 C 0,3 km/h (0 Bft) 0,00 %
12.10.2015 05:00 -0,2 C 83 % 1016,3 hPa 0,0 l/m 0,0 km/h (0 Bft) N 0,00 h 0,000 mm 0,0 UV-I 0 W/m -2,7 C -0,2 C 0,3 km/h (0 Bft) 0,00 %
12.10.2015 06:00 -1,4 C 90 % 1016,6 hPa 0,0 l/m 0,0 km/h (0 Bft) N 0,00 h 0,000 mm 0,0 UV-I 0 W/m -2,7 C -1,4 C 0,0 km/h (0 Bft) 0,00 %
12.10.2015 07:00 -1,5 C 91 % 1016,7 hPa 0,0 l/m 0,0 km/h (0 Bft) N 0,42 h 0,000 mm 0,0 UV-I 62 W/m -2,7 C -1,5 C 0,0 km/h (0 Bft) 0,00 %
12.10.2015 08:00 0,3 C 83 % 1016,9 hPa 0,0 l/m 0,6 km/h (0 Bft) O 0,75 h 0,000 mm 1,0 UV-I 112 W/m -2,2 C 0,3 C 1,0 km/h (0 Bft) 0,00 %
12.10.2015 09:00 2,8 C 76 % 1017,0 hPa 0,0 l/m 2,2 km/h (1 Bft) O-SO 0,00 h 0,000 mm 1,0 UV-I 147 W/m -1,0 C 2,8 C 4,0 km/h (1 Bft) 0,00 %
12.10.2015 10:00 4,4 C 72 % 1017,0 hPa 0,0 l/m 3,4 km/h (1 Bft) O 0,00 h 0,000 mm 1,0 UV-I 207 W/m -0,1 C 4,2 C 6,0 km/h (2 Bft) 0,00 %
12.10.2015 11:00 5,9 C 66 % 1016,8 hPa 0,0 l/m 4,0 km/h (1 Bft) O 0,42 h 0,000 mm 1,4 UV-I 280 W/m 0,0 C 5,4 C 7,6 km/h (2 Bft) 0,00 %
12.10.2015 12:00 6,8 C 64 % 1016,3 hPa 0,0 l/m 5,0 km/h (1 Bft) O 0,75 h 0,000 mm 2,0 UV-I 359 W/m 0,5 C 6,3 C 7,3 km/h (2 Bft) 0,00 %
12.10.2015 13:00 7,7 C 63 % 1015,6 hPa 0,0 l/m 4,8 km/h (1 Bft) O-NO 0,75 h 0,000 mm 1,2 UV-I 513 W/m 1,0 C 6,9 C 7,6 km/h (2 Bft) 0,00 %
12.10.2015 14:00 8,8 C 62 % 1015,2 hPa 0,0 l/m 3,4 km/h (1 Bft) O 1,00 h 0,000 mm 1,0 UV-I 632 W/m 1,8 C 8,3 C 6,3 km/h (2 Bft) 0,00 %
12.10.2015 15:00 9,5 C 62 % 1014,8 hPa 0,0 l/m 5,3 km/h (1 Bft) O-NO 1,00 h 0,000 mm 1,0 UV-I 618 W/m 2,5 C 9,0 C 8,6 km/h (2 Bft) 0,00 %
12.10.2015 16:00 9,7 C 62 % 1014,4 hPa 0,0 l/m 6,0 km/h (2 Bft) O 1,02 h 0,000 mm 1,0 UV-I 496 W/m 2,9 C 8,9 C 8,9 km/h (2 Bft) 0,00 %
12.10.2015 17:00 9,1 C 66 % 1014,2 hPa 0,0 l/m 3,8 km/h (1 Bft) O 1,00 h 0,000 mm 0,0 UV-I 243 W/m 3,2 C 8,7 C 6,3 km/h (2 Bft) 0,00 %
12.10.2015 18:00 7,2 C 75 % 1015,4 hPa 0,0 l/m 2,6 km/h (1 Bft) O 0,17 h 0,000 mm 0,0 UV-I 12 W/m 3,0 C 7,1 C 4,3 km/h (1 Bft) 0,00 %
12.10.2015 19:00 5,8 C 79 % 1015,7 hPa 0,0 l/m 4,3 km/h (1 Bft) O 0,00 h 0,000 mm 0,0 UV-I 0 W/m 2,5 C 5,6 C 6,3 km/h (2 Bft) 0,00 %
12.10.2015 20:00 5,1 C 80 % 1015,9 hPa 0,0 l/m 5,7 km/h (1 Bft) O-NO 0,00 h 0,000 mm 0,0 UV-I 0 W/m 2,0 C 4,5 C 8,6 km/h (2 Bft) 0,00 %
12.10.2015 21:00 4,6 C 80 % 1015,6 hPa 0,0 l/m 7,4 km/h (2 Bft) O 0,00 h 0,000 mm 0,0 UV-I 0 W/m 1,4 C 3,1 C 10,9 km/h (2 Bft) 0,00 %
12.10.2015 22:00 3,9 C 82 % 1015,6 hPa 0,0 l/m 9,6 km/h (2 Bft) O 0,00 h 0,000 mm 0,0 UV-I 0 W/m 1,1 C 0,9 C 13,5 km/h (3 Bft) 0,00 %
12.10.2015 23:00 3,0 C 83 % 1015,5 hPa 0,0 l/m 11,3 km/h (2 Bft) O-NO 0,00 h 0,000 mm 0,0 UV-I 0 W/m 0,4 C -0,8 C 15,2 km/h (3 Bft) 0,00 %
13.10.2015 00:00 1,9 C 81 % 1015,5 hPa 0,0 l/m 10,2 km/h (2 Bft) O 0,00 h 0,000 mm 0,0 UV-I 0 W/m -1,0 C -1,6 C 14,5 km/h (3 Bft) 0,00 %
13.10.2015 01:00 1,3 C 80 % 1015,6 hPa 0,0 l/m 8,4 km/h (2 Bft) O 0,00 h 0,000 mm 0,0 UV-I 0 W/m -1,9 C -1,5 C 12,6 km/h (3 Bft) 0,00 %
13.10.2015 02:00 0,9 C 80 % 1015,9 hPa 0,0 l/m 9,4 km/h (2 Bft) O 0,00 h 0,000 mm 0,0 UV-I 0 W/m -2,1 C -2,2 C 13,6 km/h (3 Bft) 0,00 %
13.10.2015 03:00 0,9 C 79 % 1015,5 hPa 0,0 l/m 8,2 km/h (2 Bft) O 0,00 h 0,000 mm 0,0 UV-I 0 W/m -2,2 C -1,3 C 11,5 km/h (2 Bft) 0,00 %
13.10.2015 04:00 0,8 C 81 % 1015,5 hPa 0,0 l/m 5,2 km/h (1 Bft) O 0,00 h 0,000 mm 0,0 UV-I 0 W/m -2,2 C 0,5 C 8,9 km/h (2 Bft) 0,00 %
13.10.2015 05:00 0,5 C 83 % 1015,5 hPa 0,0 l/m 5,9 km/h (2 Bft) O 0,00 h 0,000 mm 0,0 UV-I 0 W/m -2,0 C -0,8 C 8,6 km/h (2 Bft) 0,00 %
13.10.2015 06:00 0,6 C 85 % 1015,3 hPa 0,0 l/m 7,0 km/h (2 Bft) O-NO 0,00 h 0,000 mm 0,0 UV-I 0 W/m -1,6 C -0,9 C 11,2 km/h (2 Bft) 0,00 %
13.10.2015 07:00 0,7 C 86 % 1015,3 hPa 0,0 l/m 5,3 km/h (1 Bft) O 0,00 h 0,000 mm 0,0 UV-I 4 W/m -1,4 C -0,5 C 9,3 km/h (2 Bft) 0,00 %
13.10.2015 08:00 0,8 C 85 % 1015,5 hPa 0,0 l/m 4,3 km/h (1 Bft) O 0,00 h 0,000 mm 0,0 UV-I 33 W/m -1,3 C 0,0 C 7,6 km/h (2 Bft) 0,00 %
13.10.2015 09:00 1,3 C 83 % 1015,7 hPa 0,0 l/m 8,2 km/h (2 Bft) O 0,00 h 0,000 mm 1,0 UV-I 99 W/m -1,2 C -0,8 C 11,6 km/h (2 Bft) 0,00 %
13.10.2015 10:00 2,0 C 84 % 1015,4 hPa 0,0 l/m 5,4 km/h (1 Bft) O 0,00 h 0,000 mm 1,0 UV-I 150 W/m -0,4 C 1,4 C 8,9 km/h (2 Bft) 0,00 %
13.10.2015 11:00 2,9 C 83 % 1014,8 hPa 0,0 l/m 6,0 km/h (2 Bft) O 0,00 h 0,000 mm 1,0 UV-I 204 W/m 0,3 C 1,8 C 9,9 km/h (2 Bft) 0,00 %
13.10.2015 12:00 3,7 C 82 % 1014,1 hPa 0,0 l/m 5,1 km/h (1 Bft) O-NO 0,00 h 0,000 mm 1,0 UV-I 227 W/m 0,8 C 2,7 C 8,6 km/h (2 Bft) 0,00 %
13.10.2015 13:00 4,3 C 80 % 1013,5 hPa 0,0 l/m 6,7 km/h (2 Bft) O 0,42 h 0,000 mm 1,0 UV-I 291 W/m 1,2 C 3,0 C 11,5 km/h (2 Bft) 0,00 %
13.10.2015 14:00 5,2 C 78 % 1012,8 hPa 0,0 l/m 9,7 km/h (2 Bft) O 0,75 h 0,000 mm 1,0 UV-I 381 W/m 1,7 C 2,6 C 13,5 km/h (3 Bft) 0,00 %
13.10.2015 15:00 5,2 C 80 % 1012,9 hPa 0,0 l/m 7,4 km/h (2 Bft) O 0,00 h 0,000 mm 1,0 UV-I 158 W/m 2,0 C 3,5 C 10,9 km/h (2 Bft) 0,00 %
13.10.2015 16:00 4,2 C 83 % 1013,1 hPa 0,0 l/m 7,6 km/h (2 Bft) O 0,00 h 0,000 mm 1,0 UV-I 70 W/m 1,6 C 2,8 C 10,6 km/h (2 Bft) 0,00 %
13.10.2015 17:00 3,5 C 88 % 1013,1 hPa 0,0 l/m 6,9 km/h (2 Bft) O 0,00 h 0,000 mm 0,0 UV-I 30 W/m 1,6 C 2,1 C 10,6 km/h (2 Bft) 0,00 %
13.10.2015 18:00 3,1 C 90 % 1013,3 hPa 0,0 l/m 3,8 km/h (1 Bft) O 0,00 h 0,000 mm 0,0 UV-I 0 W/m 1,7 C 2,9 C 7,6 km/h (2 Bft) 0,00 %
13.10.2015 20:00 4,5 C 92 % 1014,3 hPa 0,0 l/m 9,4 km/h (2 Bft) O-NO 0,00 h 0,000 mm 0,0 UV-I 0 W/m 3,3 C 2,0 C 15,2 km/h (3 Bft) 99,01 %
13.10.2015 21:00 4,7 C 92 % 1013,9 hPa 0,0 l/m 11,4 km/h (2 Bft) O 0,00 h 0,000 mm 0,0 UV-I 0 W/m 3,6 C 0,9 C 18,1 km/h (3 Bft) 99,81 %
13.10.2015 22:00 4,8 C 94 % 1013,4 hPa 0,0 l/m 11,7 km/h (2 Bft) O 0,00 h 0,000 mm 0,0 UV-I 0 W/m 4,0 C 0,8 C 18,9 km/h (3 Bft) 98,93 %
13.10.2015 23:00 4,9 C 94 % 1012,9 hPa 0,0 l/m 3,5 km/h (1 Bft) N-NO 0,00 h 0,000 mm 0,0 UV-I 0 W/m 4,1 C 4,7 C 6,9 km/h (2 Bft) 99,66 %
14.10.2015 00:00 4,7 C 94 % 1012,3 hPa 0,6 l/m 2,6 km/h (1 Bft) N-NO 0,00 h 0,000 mm 0,0 UV-I 0 W/m 3,9 C 4,7 C 5,1 km/h (1 Bft) 98,94 %
14.10.2015 01:00 4,6 C 94 % 1012,2 hPa 1,8 l/m 1,7 km/h (1 Bft) N-NO 0,00 h 0,000 mm 0,0 UV-I 0 W/m 3,8 C 4,6 C 3,8 km/h (1 Bft) 99,58 %
14.10.2015 02:00 4,6 C 95 % 1013,1 hPa 0,0 l/m 2,7 km/h (1 Bft) W 0,00 h 0,000 mm 0,0 UV-I 0 W/m 3,8 C 4,6 C 5,3 km/h (1 Bft) 99,27 %
14.10.2015 03:00 4,5 C 95 % 1013,7 hPa 0,0 l/m 4,6 km/h (1 Bft) W 0,00 h 0,000 mm 0,0 UV-I 0 W/m 3,7 C 4,5 C 9,0 km/h (2 Bft) 99,83 %
14.10.2015 04:00 4,6 C 96 % 1014,2 hPa 0,0 l/m 3,6 km/h (1 Bft) W 0,00 h 0,000 mm 0,0 UV-I 0 W/m 4,0 C 4,6 C 7,9 km/h (2 Bft) 99,60 %
14.10.2015 05:00 4,9 C 95 % 1014,5 hPa 0,4 l/m 5,2 km/h (1 Bft) S-SW 0,00 h 0,000 mm 0,0 UV-I 0 W/m 4,2 C 4,7 C 9,0 km/h (2 Bft) 99,14 %
14.10.2015 06:00 5,1 C 95 % 1014,7 hPa 0,0 l/m 6,8 km/h (2 Bft) SW 0,00 h 0,000 mm 0,0 UV-I 0 W/m 4,3 C 4,5 C 11,9 km/h (2 Bft) 99,41 %
14.10.2015 07:00 5,4 C 94 % 1014,9 hPa 0,2 l/m 5,5 km/h (1 Bft) SW 0,00 h 0,000 mm 0,0 UV-I 9 W/m 4,5 C 5,3 C 9,5 km/h (2 Bft) 99,44 %
14.10.2015 08:00 5,8 C 94 % 1015,4 hPa 0,6 l/m 3,8 km/h (1 Bft) W-SW 0,00 h 0,000 mm 0,0 UV-I 19 W/m 4,9 C 5,8 C 7,4 km/h (2 Bft) 99,07 %
14.10.2015 09:00 6,3 C 94 % 1015,6 hPa 0,2 l/m 1,8 km/h (1 Bft) W 0,20 h 0,000 mm 0,6 UV-I 124 W/m 5,5 C 6,3 C 3,7 km/h (1 Bft) 99,07 %
14.10.2015 10:00 7,3 C 92 % 1015,7 hPa 0,0 l/m 3,8 km/h (1 Bft) SW 0,07 h 0,051 mm 0,6 UV-I 143 W/m 6,0 C 7,3 C 7,4 km/h (2 Bft) 99,73 %
14.10.2015 11:00 7,6 C 92 % 1015,8 hPa 0,0 l/m 2,9 km/h (1 Bft) N-NO 0,00 h 0,076 mm 0,8 UV-I 142 W/m 6,3 C 7,6 C 5,3 km/h (1 Bft) 99,30 %
14.10.2015 12:00 7,8 C 90 % 1015,7 hPa 0,0 l/m 1,8 km/h (1 Bft) N 0,00 h 0,076 mm 0,7 UV-I 105 W/m 6,3 C 7,8 C 3,7 km/h (1 Bft) 98,98 %
14.10.2015 13:00 7,7 C 90 % 1015,3 hPa 0,0 l/m 2,0 km/h (1 Bft) N 0,00 h 0,051 mm 0,5 UV-I 81 W/m 6,2 C 7,7 C 4,1 km/h (1 Bft) 99,46 %
14.10.2015 14:00 7,8 C 91 % 1015,2 hPa 0,2 l/m 1,4 km/h (1 Bft) N-NO 0,00 h 0,025 mm 0,4 UV-I 65 W/m 6,3 C 7,8 C 3,3 km/h (1 Bft) 99,60 %
14.10.2015 15:00 7,8 C 92 % 1015,1 hPa 0,0 l/m 2,0 km/h (1 Bft) N-NO 0,00 h 0,026 mm 0,4 UV-I 67 W/m 6,6 C 7,8 C 4,1 km/h (1 Bft) 99,39 %
14.10.2015 16:00 7,9 C 91 % 1014,8 hPa 0,0 l/m 2,3 km/h (1 Bft) N-NO 0,00 h 0,025 mm 0,0 UV-I 71 W/m 6,5 C 7,9 C 4,5 km/h (1 Bft) 99,17 %
14.10.2015 17:00 7,8 C 90 % 1014,6 hPa 0,0 l/m 0,9 km/h (0 Bft) N-NO 0,03 h 0,026 mm 0,0 UV-I 32 W/m 6,3 C 7,8 C 2,5 km/h (1 Bft) 99,37 %
14.10.2015 18:00 7,5 C 91 % 1014,6 hPa 0,0 l/m 1,2 km/h (1 Bft) O 0,03 h 0,025 mm 0,0 UV-I 9 W/m 6,2 C 7,5 C 2,7 km/h (1 Bft) 99,43 %
14.10.2015 19:00 7,4 C 92 % 1014,4 hPa 0,0 l/m 3,5 km/h (1 Bft) O-NO 0,00 h 0,000 mm 0,0 UV-I 0 W/m 6,2 C 7,4 C 7,6 km/h (2 Bft) 98,95 %
14.10.2015 20:00 7,2 C 93 % 1014,1 hPa 0,0 l/m 4,7 km/h (1 Bft) O-NO 0,00 h 0,000 mm 0,0 UV-I 0 W/m 6,2 C 7,2 C 11,3 km/h (2 Bft) 99,49 %
14.10.2015 21:00 7,1 C 93 % 1013,8 hPa 0,0 l/m 6,1 km/h (2 Bft) O-NO 0,00 h 0,000 mm 0,0 UV-I 0 W/m 6,1 C 6,8 C 12,6 km/h (3 Bft) 99,58 %
14.10.2015 22:00 7,1 C 94 % 1013,8 hPa 0,0 l/m 3,2 km/h (1 Bft) N-NO 0,00 h 0,000 mm 0,0 UV-I 0 W/m 6,2 C 7,1 C 8,0 km/h (2 Bft) 99,22 %
14.10.2015 23:00 6,9 C 95 % 1013,1 hPa 1,2 l/m 2,3 km/h (1 Bft) NO 0,00 h 0,000 mm 0,0 UV-I 0 W/m 6,2 C 6,9 C 6,0 km/h (2 Bft) 99,85 %
15.10.2015 00:00 6,6 C 95 % 1012,5 hPa 0,0 l/m 3,1 km/h (1 Bft) N-NO 0,00 h 0,000 mm 0,0 UV-I 0 W/m 5,9 C 6,6 C 6,5 km/h (2 Bft) 99,14 %
15.10.2015 01:00 6,6 C 96 % 1011,8 hPa 0,2 l/m 1,9 km/h (1 Bft) N-NO 0,00 h 0,000 mm 0,0 UV-I 0 W/m 5,9 C 6,6 C 4,4 km/h (1 Bft) 99,63 %
15.10.2015 02:00 6,7 C 97 % 1011,4 hPa 0,6 l/m 1,0 km/h (0 Bft) N-NO 0,00 h 0,000 mm 0,0 UV-I 0 W/m 6,2 C 6,7 C 2,9 km/h (1 Bft) 99,44 %
15.10.2015 03:00 6,8 C 97 % 1010,7 hPa 0,0 l/m 0,6 km/h (0 Bft) N 0,00 h 0,000 mm 0,0 UV-I 0 W/m 6,3 C 6,8 C 2,4 km/h (1 Bft) 99,29 %
15.10.2015 04:00 6,6 C 97 % 1010,3 hPa 0,0 l/m 0,3 km/h (0 Bft) N-NO 0,00 h 0,000 mm 0,0 UV-I 0 W/m 6,1 C 6,6 C 2,1 km/h (1 Bft) 99,12 %
15.10.2015 05:00 6,7 C 97 % 1009,9 hPa 0,2 l/m 0,2 km/h (0 Bft) N 0,00 h 0,000 mm 0,0 UV-I 0 W/m 6,2 C 6,7 C 1,6 km/h (1 Bft) 98,76 %
15.10.2015 06:00 6,7 C 97 % 1009,6 hPa 0,4 l/m 1,4 km/h (1 Bft) W 0,00 h 0,000 mm 0,0 UV-I 0 W/m 6,3 C 6,7 C 3,9 km/h (1 Bft) 99,49 %
15.10.2015 07:00 6,6 C 97 % 1009,4 hPa 0,0 l/m 1,5 km/h (1 Bft) SW 0,00 h 0,000 mm 0,0 UV-I 0 W/m 6,2 C 6,6 C 3,9 km/h (1 Bft) 99,28 %
15.10.2015 08:00 6,6 C 97 % 1009,6 hPa 0,0 l/m 2,9 km/h (1 Bft) W-SW 0,00 h 0,000 mm 0,0 UV-I 10 W/m 6,2 C 6,6 C 6,2 km/h (2 Bft) 99,43 %
15.10.2015 09:00 6,8 C 97 % 1010,2 hPa 0,0 l/m 3,2 km/h (1 Bft) W 0,00 h 0,000 mm 0,0 UV-I 35 W/m 6,2 C 6,8 C 6,8 km/h (2 Bft) 99,23 %
15.10.2015 10:00 7,3 C 96 % 1010,6 hPa 0,0 l/m 3,1 km/h (1 Bft) W 0,00 h 0,025 mm 0,6 UV-I 97 W/m 6,7 C 7,3 C 6,7 km/h (2 Bft) 99,14 %
15.10.2015 11:00 8,0 C 93 % 1010,4 hPa 0,0 l/m 1,9 km/h (1 Bft) W-SW 0,00 h 0,051 mm 0,7 UV-I 127 W/m 7,0 C 8,0 C 5,2 km/h (1 Bft) 99,29 %
15.10.2015 12:00 8,4 C 91 % 1010,5 hPa 0,0 l/m 1,7 km/h (1 Bft) W 0,00 h 0,051 mm 1,0 UV-I 171 W/m 7,0 C 8,4 C 4,7 km/h (1 Bft) 99,43 %
15.10.2015 13:00 8,7 C 90 % 1010,7 hPa 0,0 l/m 2,2 km/h (1 Bft) W 0,00 h 0,076 mm 0,9 UV-I 116 W/m 7,2 C 8,7 C 5,7 km/h (1 Bft) 99,29 %
15.10.2015 14:00 8,8 C 90 % 1010,7 hPa 0,0 l/m 2,7 km/h (1 Bft) W 0,00 h 0,051 mm 0,6 UV-I 128 W/m 7,2 C 8,8 C 7,5 km/h (2 Bft) 99,06 %
15.10.2015 15:00 8,6 C 90 % 1010,8 hPa 0,0 l/m 2,6 km/h (1 Bft) W-SW 0,00 h 0,051 mm 0,1 UV-I 72 W/m 7,0 C 8,6 C 6,1 km/h (2 Bft) 99,09 %
15.10.2015 16:00 8,3 C 90 % 1011,0 hPa 0,0 l/m 3,5 km/h (1 Bft) W 0,00 h 0,025 mm 0,0 UV-I 26 W/m 6,8 C 8,3 C 8,0 km/h (2 Bft) 99,21 %
15.10.2015 17:00 7,7 C 93 % 1011,3 hPa 0,0 l/m 3,7 km/h (1 Bft) W 0,00 h 0,026 mm 0,0 UV-I 20 W/m 6,7 C 7,7 C 9,0 km/h (2 Bft) 99,71 %
15.10.2015 18:00 7,6 C 93 % 1011,5 hPa 0,0 l/m 3,8 km/h (1 Bft) W 0,08 h 0,000 mm 0,0 UV-I 11 W/m 6,5 C 7,6 C 9,3 km/h (2 Bft) 99,64 %
15.10.2015 19:00 7,5 C 93 % 1012,2 hPa 0,0 l/m 4,3 km/h (1 Bft) W 0,00 h 0,000 mm 0,0 UV-I 0 W/m 6,4 C 7,5 C 9,9 km/h (2 Bft) 99,85 %
15.10.2015 20:00 7,0 C 95 % 1012,7 hPa 0,0 l/m 5,1 km/h (1 Bft) W 0,00 h 0,000 mm 0,0 UV-I 0 W/m 6,2 C 6,8 C 10,1 km/h (2 Bft) 99,41 %
15.10.2015 21:00 6,9 C 95 % 1013,0 hPa 0,0 l/m 3,7 km/h (1 Bft) W 0,00 h 0,000 mm 0,0 UV-I 0 W/m 6,1 C 6,9 C 8,6 km/h (2 Bft) 99,20 %
15.10.2015 22:00 6,9 C 93 % 1013,5 hPa 0,0 l/m 3,4 km/h (1 Bft) W 0,00 h 0,000 mm 0,0 UV-I 0 W/m 5,8 C 6,9 C 7,9 km/h (2 Bft) 99,30 %
15.10.2015 23:00 6,8 C 91 % 1013,9 hPa 0,0 l/m 2,5 km/h (1 Bft) W 0,00 h 0,000 mm 0,0 UV-I 0 W/m 5,5 C 6,8 C 6,0 km/h (2 Bft) 99,51 %
16.10.2015 00:00 6,6 C 91 % 1014,3 hPa 0,0 l/m 3,6 km/h (1 Bft) W 0,00 h 0,000 mm 0,0 UV-I 0 W/m 5,3 C 6,6 C 8,9 km/h (2 Bft) 99,55 %
16.10.2015 01:00 6,4 C 90 % 1014,7 hPa 0,0 l/m 4,4 km/h (1 Bft) W 0,00 h 0,000 mm 0,0 UV-I 0 W/m 5,0 C 6,4 C 9,8 km/h (2 Bft) 99,36 %
16.10.2015 02:00 6,3 C 92 % 1014,8 hPa 0,0 l/m 3,0 km/h (1 Bft) W 0,00 h 0,000 mm 0,0 UV-I 0 W/m 5,0 C 6,3 C 8,2 km/h (2 Bft) 99,36 %
16.10.2015 03:00 6,2 C 93 % 1014,8 hPa 0,0 l/m 2,0 km/h (1 Bft) W-SW 0,00 h 0,000 mm 0,0 UV-I 0 W/m 5,1 C 6,2 C 5,5 km/h (1 Bft) 99,30 %
16.10.2015 04:00 6,0 C 93 % 1014,9 hPa 0,0 l/m 1,2 km/h (1 Bft) W 0,00 h 0,000 mm 0,0 UV-I 0 W/m 4,9 C 6,0 C 3,3 km/h (1 Bft) 99,49 %
16.10.2015 05:00 5,8 C 93 % 1015,1 hPa 0,0 l/m 0,6 km/h (0 Bft) W 0,00 h 0,000 mm 0,0 UV-I 0 W/m 4,8 C 5,8 C 2,7 km/h (1 Bft) 99,15 %
16.10.2015 06:00 5,7 C 92 % 1014,9 hPa 0,0 l/m 1,4 km/h (1 Bft) W 0,00 h 0,000 mm 0,0 UV-I 0 W/m 4,6 C 5,7 C 3,7 km/h (1 Bft) 99,50 %
16.10.2015 07:00 5,7 C 92 % 1015,2 hPa 0,0 l/m 1,0 km/h (0 Bft) W 0,00 h 0,000 mm 0,0 UV-I 11 W/m 4,4 C 5,7 C 3,2 km/h (1 Bft) 99,07 %
16.10.2015 08:00 5,8 C 92 % 1015,6 hPa 0,0 l/m 1,9 km/h (1 Bft) W 0,00 h 0,000 mm 0,0 UV-I 31 W/m 4,5 C 5,8 C 4,9 km/h (1 Bft) 99,50 %
16.10.2015 09:00 5,8 C 92 % 1016,0 hPa 0,0 l/m 3,3 km/h (1 Bft) W 0,00 h 0,025 mm 0,0 UV-I 41 W/m 4,6 C 5,8 C 8,4 km/h (2 Bft) 99,65 %
16.10.2015 10:00 6,0 C 91 % 1016,5 hPa 0,0 l/m 2,6 km/h (1 Bft) W 0,00 h 0,026 mm 0,5 UV-I 98 W/m 4,6 C 6,0 C 6,0 km/h (2 Bft) 99,30 %
16.10.2015 11:00 6,5 C 88 % 1016,4 hPa 0,0 l/m 3,7 km/h (1 Bft) SW 0,00 h 0,051 mm 0,7 UV-I 155 W/m 4,7 C 6,5 C 8,9 km/h (2 Bft) 99,78 %
16.10.2015 12:00 6,5 C 88 % 1016,5 hPa 0,0 l/m 3,3 km/h (1 Bft) W-SW 0,00 h 0,076 mm 0,5 UV-I 84 W/m 4,7 C 6,5 C 8,8 km/h (2 Bft) 99,42 %
16.10.2015 13:00 6,6 C 87 % 1016,4 hPa 0,0 l/m 5,2 km/h (1 Bft) W 0,00 h 0,051 mm 0,5 UV-I 98 W/m 4,5 C 6,6 C 11,8 km/h (2 Bft) 99,36 %
16.10.2015 14:00 6,7 C 85 % 1016,3 hPa 0,0 l/m 5,0 km/h (1 Bft) W 0,00 h 0,050 mm 0,5 UV-I 123 W/m 4,4 C 6,7 C 11,3 km/h (2 Bft) 99,28 %
16.10.2015 15:00 6,6 C 86 % 1016,5 hPa 0,2 l/m 2,6 km/h (1 Bft) W 0,00 h 0,051 mm 0,5 UV-I 58 W/m 4,4 C 6,6 C 6,7 km/h (2 Bft) 99,50 %
16.10.2015 16:00 5,9 C 93 % 1016,7 hPa 1,6 l/m 1,1 km/h (1 Bft) W 0,00 h 0,026 mm 0,0 UV-I 62 W/m 4,9 C 5,9 C 3,3 km/h (1 Bft) 99,37 %
16.10.2015 17:00 5,8 C 93 % 1016,6 hPa 0,0 l/m 1,9 km/h (1 Bft) W 0,00 h 0,025 mm 0,0 UV-I 18 W/m 4,8 C 5,8 C 4,0 km/h (1 Bft) 99,57 %
16.10.2015 18:00 5,8 C 93 % 1016,8 hPa 0,0 l/m 1,9 km/h (1 Bft) W-SW 0,00 h 0,000 mm 0,0 UV-I 4 W/m 4,8 C 5,8 C 4,8 km/h (1 Bft) 99,15 %
16.10.2015 19:00 5,8 C 94 % 1017,2 hPa 0,0 l/m 2,1 km/h (1 Bft) W-SW 0,00 h 0,000 mm 0,0 UV-I 0 W/m 4,9 C 5,8 C 4,7 km/h (1 Bft) 98,65 %
16.10.2015 20:00 5,9 C 94 % 1017,6 hPa 0,0 l/m 2,1 km/h (1 Bft) SW 0,00 h 0,000 mm 0,0 UV-I 0 W/m 5,1 C 5,9 C 4,7 km/h (1 Bft) 98,84 %
16.10.2015 21:00 5,9 C 95 % 1018,1 hPa 0,6 l/m 3,2 km/h (1 Bft) SW 0,00 h 0,000 mm 0,0 UV-I 0 W/m 5,2 C 5,9 C 6,7 km/h (2 Bft) 98,87 %
16.10.2015 22:00 5,4 C 93 % 1018,7 hPa 0,2 l/m 3,1 km/h (1 Bft) SW 0,00 h 0,000 mm 0,0 UV-I 0 W/m 4,5 C 5,4 C 7,0 km/h (2 Bft) 99,42 %
16.10.2015 23:00 5,1 C 95 % 1018,6 hPa 0,0 l/m 1,9 km/h (1 Bft) SW 0,00 h 0,000 mm 0,0 UV-I 0 W/m 4,4 C 5,1 C 4,1 km/h (1 Bft) 98,94 %
17.10.2015 00:00 4,9 C 95 % 1018,6 hPa 0,0 l/m 1,7 km/h (1 Bft) S 0,00 h 0,000 mm 0,0 UV-I 0 W/m 4,2 C 4,9 C 3,9 km/h (1 Bft) 96,87 %
17.10.2015 01:00 4,1 C 96 % 1018,4 hPa 0,0 l/m 1,4 km/h (1 Bft) SW 0,00 h 0,000 mm 0,0 UV-I 0 W/m 3,5 C 4,1 C 3,3 km/h (1 Bft) 99,43 %
17.10.2015 02:00 4,5 C 95 % 1018,5 hPa 0,0 l/m 1,6 km/h (1 Bft) SW 0,00 h 0,000 mm 0,0 UV-I 0 W/m 3,8 C 4,5 C 3,5 km/h (1 Bft) 99,43 %
17.10.2015 03:00 4,8 C 95 % 1018,5 hPa 0,0 l/m 1,2 km/h (1 Bft) SW 0,00 h 0,000 mm 0,0 UV-I 0 W/m 4,0 C 4,8 C 3,3 km/h (1 Bft) 99,22 %
17.10.2015 04:00 4,8 C 95 % 1018,5 hPa 0,0 l/m 0,7 km/h (0 Bft) S-SO 0,00 h 0,000 mm 0,0 UV-I 0 W/m 4,1 C 4,8 C 2,5 km/h (1 Bft) 99,55 %
17.10.2015 05:00 4,9 C 95 % 1018,5 hPa 0,0 l/m 0,5 km/h (0 Bft) O-SO 0,00 h 0,000 mm 0,0 UV-I 0 W/m 4,1 C 4,9 C 1,9 km/h (1 Bft) 99,45 %
17.10.2015 06:00 4,9 C 96 % 1018,6 hPa 0,0 l/m 0,2 km/h (0 Bft) SW 0,00 h 0,000 mm 0,0 UV-I 0 W/m 4,2 C 4,9 C 1,1 km/h (0 Bft) 99,07 %
17.10.2015 07:00 4,9 C 96 % 1018,8 hPa 0,0 l/m 0,2 km/h (0 Bft) N 0,00 h 0,000 mm 0,0 UV-I 9 W/m 4,3 C 4,9 C 1,1 km/h (0 Bft) 99,24 %
17.10.2015 08:00 5,2 C 96 % 1019,1 hPa 0,0 l/m 0,4 km/h (0 Bft) N 0,00 h 0,000 mm 0,0 UV-I 46 W/m 4,7 C 5,2 C 1,7 km/h (1 Bft) 99,58 %
17.10.2015 09:00 6,1 C 94 % 1019,2 hPa 0,0 l/m 0,8 km/h (0 Bft) W 0,42 h 0,025 mm 0,6 UV-I 171 W/m 5,2 C 6,1 C 2,5 km/h (1 Bft) 99,44 %
17.10.2015 10:00 7,2 C 86 % 1019,1 hPa 0,0 l/m 1,7 km/h (1 Bft) S-SW 0,67 h 0,077 mm 0,9 UV-I 267 W/m 5,0 C 7,2 C 5,1 km/h (1 Bft) 99,42 %
17.10.2015 11:00 8,0 C 80 % 1018,9 hPa 0,0 l/m 1,2 km/h (1 Bft) O 0,42 h 0,101 mm 1,3 UV-I 273 W/m 4,8 C 8,0 C 3,7 km/h (1 Bft) 99,36 %
17.10.2015 12:00 9,2 C 74 % 1018,5 hPa 0,0 l/m 1,5 km/h (1 Bft) O-SO 0,42 h 0,127 mm 1,3 UV-I 342 W/m 4,7 C 9,2 C 4,7 km/h (1 Bft) 99,35 %
17.10.2015 13:00 9,3 C 70 % 1018,0 hPa 0,0 l/m 1,6 km/h (1 Bft) O 0,00 h 0,153 mm 1,0 UV-I 200 W/m 4,2 C 9,3 C 4,8 km/h (1 Bft) 99,47 %
17.10.2015 14:00 9,4 C 76 % 1017,7 hPa 0,0 l/m 3,0 km/h (1 Bft) N 0,00 h 0,101 mm 0,9 UV-I 206 W/m 5,4 C 9,4 C 6,9 km/h (2 Bft) 99,56 %
17.10.2015 15:00 9,5 C 73 % 1017,7 hPa 0,0 l/m 2,1 km/h (1 Bft) N-NO 0,00 h 0,102 mm 0,6 UV-I 160 W/m 4,9 C 9,5 C 4,8 km/h (1 Bft) 99,63 %
17.10.2015 16:00 9,3 C 71 % 1017,8 hPa 0,0 l/m 2,3 km/h (1 Bft) N-NO 0,08 h 0,076 mm 0,0 UV-I 96 W/m 4,3 C 9,3 C 4,9 km/h (1 Bft) 99,51 %
17.10.2015 17:00 8,8 C 72 % 1017,7 hPa 0,0 l/m 2,2 km/h (1 Bft) N-NO 0,00 h 0,051 mm 0,0 UV-I 25 W/m 4,1 C 8,8 C 4,5 km/h (1 Bft) 99,49 %
17.10.2015 18:00 8,1 C 79 % 1017,8 hPa 0,0 l/m 0,8 km/h (0 Bft) O-NO 0,08 h 0,025 mm 0,0 UV-I 4 W/m 4,8 C 8,1 C 2,3 km/h (1 Bft) 99,66 %
17.10.2015 19:00 7,6 C 83 % 1017,7 hPa 0,0 l/m 1,1 km/h (0 Bft) O-SO 0,00 h 0,000 mm 0,0 UV-I 0 W/m 5,0 C 7,6 C 3,5 km/h (1 Bft) 99,22 %
17.10.2015 20:00 7,8 C 84 % 1017,7 hPa 0,0 l/m 0,5 km/h (0 Bft) O 0,00 h 0,000 mm 0,0 UV-I 0 W/m 5,1 C 7,8 C 1,7 km/h (1 Bft) 99,21 %
17.10.2015 21:00 7,4 C 87 % 1017,7 hPa 0,0 l/m 0,1 km/h (0 Bft) N 0,00 h 0,000 mm 0,0 UV-I 0 W/m 5,4 C 7,4 C 0,4 km/h (0 Bft) 99,08 %
17.10.2015 22:00 7,2 C 86 % 1017,7 hPa 0,0 l/m 0,9 km/h (0 Bft) O 0,00 h 0,000 mm 0,0 UV-I 0 W/m 5,0 C 7,2 C 2,7 km/h (1 Bft) 99,23 %
17.10.2015 23:00 6,9 C 87 % 1017,6 hPa 0,0 l/m 1,6 km/h (1 Bft) O 0,00 h 0,000 mm 0,0 UV-I 0 W/m 4,8 C 6,9 C 4,1 km/h (1 Bft) 99,25 %
18.10.2015 00:00 6,3 C 91 % 1017,4 hPa 0,0 l/m 0,4 km/h (0 Bft) O-NO 0,00 h 0,000 mm 0,0 UV-I 0 W/m 4,9 C 6,3 C 1,7 km/h (1 Bft) 99,58 %
18.10.2015 01:00 5,3 C 94 % 1017,1 hPa 0,0 l/m 0,1 km/h (0 Bft) N 0,00 h 0,000 mm 0,0 UV-I 0 W/m 4,4 C 5,3 C 0,7 km/h (0 Bft) 99,65 %
18.10.2015 02:00 4,4 C 95 % 1017,2 hPa 0,0 l/m 0,2 km/h (0 Bft) N 0,00 h 0,000 mm 0,0 UV-I 0 W/m 3,7 C 4,4 C 0,9 km/h (0 Bft) 99,22 %
18.10.2015 03:00 4,3 C 96 % 1016,8 hPa 0,0 l/m 0,1 km/h (0 Bft) N 0,00 h 0,000 mm 0,0 UV-I 0 W/m 3,7 C 4,3 C 0,8 km/h (0 Bft) 99,31 %
18.10.2015 04:00 4,2 C 96 % 1016,6 hPa 0,0 l/m 0,0 km/h (0 Bft) N 0,00 h 0,000 mm 0,0 UV-I 0 W/m 3,6 C 4,2 C 0,0 km/h (0 Bft) 99,42 %
18.10.2015 05:00 4,0 C 96 % 1017,0 hPa 0,0 l/m 0,3 km/h (0 Bft) N 0,00 h 0,000 mm 0,0 UV-I 0 W/m 3,5 C 4,0 C 0,8 km/h (0 Bft) 99,22 %
18.10.2015 06:00 4,3 C 96 % 1017,2 hPa 0,0 l/m 0,2 km/h (0 Bft) N 0,00 h 0,000 mm 0,0 UV-I 0 W/m 3,8 C 4,3 C 0,9 km/h (0 Bft) 99,58 %
18.10.2015 07:00 4,7 C 96 % 1017,1 hPa 0,0 l/m 0,3 km/h (0 Bft) S 0,00 h 0,000 mm 0,0 UV-I 7 W/m 4,1 C 4,7 C 1,5 km/h (1 Bft) 99,06 %
18.10.2015 08:00 5,3 C 96 % 1017,3 hPa 0,0 l/m 0,8 km/h (0 Bft) SO 0,00 h 0,000 mm 0,0 UV-I 35 W/m 4,7 C 5,3 C 2,7 km/h (1 Bft) 99,27 %
18.10.2015 09:00 5,5 C 95 % 1017,7 hPa 0,0 l/m 1,8 km/h (1 Bft) S-SW 0,00 h 0,025 mm 0,0 UV-I 52 W/m 4,8 C 5,5 C 4,7 km/h (1 Bft) 99,37 %
18.10.2015 10:00 5,8 C 95 % 1017,8 hPa 0,0 l/m 1,2 km/h (1 Bft) S 0,00 h 0,026 mm 0,7 UV-I 127 W/m 5,1 C 5,8 C 3,5 km/h (1 Bft) 99,16 %
18.10.2015 11:00 6,7 C 93 % 1017,7 hPa 0,0 l/m 2,0 km/h (1 Bft) O-SO 0,33 h 0,051 mm 1,1 UV-I 254 W/m 5,7 C 6,7 C 5,2 km/h (1 Bft) 98,87 %
18.10.2015 12:00 8,1 C 87 % 1017,5 hPa 0,0 l/m 2,9 km/h (1 Bft) O 0,25 h 0,101 mm 1,5 UV-I 264 W/m 6,1 C 8,1 C 6,4 km/h (2 Bft) 99,71 %
18.10.2015 13:00 10,0 C 81 % 1016,5 hPa 0,0 l/m 2,8 km/h (1 Bft) N-NO 0,92 h 0,127 mm 1,9 UV-I 513 W/m 6,9 C 10,0 C 6,4 km/h (2 Bft) 99,57 %
18.10.2015 14:00 10,1 C 80 % 1016,1 hPa 0,0 l/m 3,6 km/h (1 Bft) O 0,08 h 0,229 mm 1,1 UV-I 221 W/m 6,8 C 10,1 C 8,3 km/h (2 Bft) 99,53 %
18.10.2015 15:00 9,8 C 82 % 1016,0 hPa 0,0 l/m 3,0 km/h (1 Bft) N-NO 0,08 h 0,101 mm 0,5 UV-I 156 W/m 6,8 C 9,8 C 7,6 km/h (2 Bft) 99,56 %
18.10.2015 16:00 9,6 C 81 % 1016,1 hPa 0,0 l/m 2,5 km/h (1 Bft) O 0,50 h 0,077 mm 0,4 UV-I 123 W/m 6,5 C 9,6 C 5,5 km/h (1 Bft) 99,72 %
18.10.2015 17:00 9,1 C 83 % 1016,5 hPa 0,0 l/m 0,3 km/h (0 Bft) N 0,00 h 0,050 mm 0,0 UV-I 23 W/m 6,4 C 9,1 C 1,9 km/h (1 Bft) 99,30 %
18.10.2015 18:00 8,4 C 90 % 1017,3 hPa 0,8 l/m 0,8 km/h (0 Bft) W-SW 0,00 h 0,000 mm 0,0 UV-I 0 W/m 6,8 C 8,4 C 2,7 km/h (1 Bft) 99,12 %
18.10.2015 19:00 7,7 C 95 % 1017,8 hPa 1,4 l/m 1,2 km/h (1 Bft) W 0,00 h 0,000 mm 0,0 UV-I 0 W/m 7,0 C 7,7 C 3,6 km/h (1 Bft) 99,33 %
18.10.2015 20:00 7,5 C 95 % 1018,0 hPa 0,0 l/m 1,6 km/h (1 Bft) W 0,00 h 0,000 mm 0,0 UV-I 0 W/m 6,8 C 7,5 C 4,1 km/h (1 Bft) 99,61 %
18.10.2015 21:00 7,2 C 96 % 1018,1 hPa 0,0 l/m 0,9 km/h (0 Bft) W 0,00 h 0,000 mm 0,0 UV-I 0 W/m 6,5 C 7,2 C 2,9 km/h (1 Bft) 99,50 %
18.10.2015 22:00 6,7 C 97 % 1018,1 hPa 0,0 l/m 0,2 km/h (0 Bft) SO 0,00 h 0,000 mm 0,0 UV-I 0 W/m 6,2 C 6,7 C 1,3 km/h (1 Bft) 99,57 %
18.10.2015 23:00 6,7 C 97 % 1018,0 hPa 0,0 l/m 0,1 km/h (0 Bft) N 0,00 h 0,000 mm 0,0 UV-I 0 W/m 6,2 C 6,7 C 0,7 km/h (0 Bft) 99,08 %
Min-Datum _ 12.10.15 12.10.15 15.10.15 - 12.10.15 - - - - - 12.10.15 13.10.15 12.10.15 12.10.15
_ Min-Zeit 06:51 16:01 07:45 - 00:01 - - - - - 07:46 02:57 00:01 00:01
Minimum _ -1,8 C 60 % 1009,3 hPa - 0,0 km/h (0 Bft) - - - - - -3,0 C -7,5 C 0,0 km/h (0 Bft) 0,00 %
Max-Datum _ 18.10.15 15.10.15 17.10.15 14.10.15 12.10.15 - 12.10.15 18.10.15 18.10.15 18.10.15 18.10.15 18.10.15 13.10.15 13.10.15
_ Max-Zeit 13:55 02:30 08:50 01:08 23:57 - 16:12 14:00 13:00 13:10 13:50 13:50 02:17 20:37
Maximum _ 10,8 C 97 % 1019,3 hPa 1,8 l/m 18,4 km/h
O-NO (3 Bft)
- 0,10 h 0,229 mm 2,1 UV-I 653 W/m 7,6 C 10,7 C 28,1 km/h
O (4 Bft)
100,00 %
Durchschnitt _ 5,8 C 88 % 1015,4 hPa #11,4 l/m 3,0 km/h (1 Bft) O #13:06 h #2,743 mm 0,9 UV-I 140 W/m 3,9 C 5,4 C 6,0 km/h (2 Bft) 73,76 %